Terminal Aerodrome Forecast
Issued by NWS Wilmington, NC

Home | Current Version | Previous Version | Text Only | Print | Product List | Glossary On
Versions: 1 2 3 4 5 6 7 8 9 10 11 12 13 14 15 16 17 18 19 20 21
000
FTUS42 KILM 251100
TAFFLO
TAF
KFLO 251136Z 2512/2612 VRB03KT 2SM BR OVC003
      TEMPO 2512/2514 4SM BR BKN006
     FM251400 06005KT P6SM VCSH SCT050 BKN100
     FM260000 VRB02KT P6SM FEW040
     FM260700 VRB01KT 3SM BR FEW003 FEW060=

USA.gov is the U.S. government's official web portal to all federal, state and local government web resources and services.